sensor_id;sensor_type;location;lat;lon;timestamp;P1;durP1;ratioP1;P2;durP2;ratioP2
795;SDS011;381;48.770;9.188;2023-09-30T00:00:34;7.17;;;5.00;;
795;SDS011;381;48.770;9.188;2023-09-30T00:05:37;6.07;;;4.10;;
795;SDS011;381;48.770;9.188;2023-09-30T00:10:39;5.47;;;3.63;;
795;SDS011;381;48.770;9.188;2023-09-30T00:15:42;4.83;;;3.70;;
795;SDS011;381;48.770;9.188;2023-09-30T00:20:44;5.77;;;3.63;;
795;SDS011;381;48.770;9.188;2023-09-30T00:25:47;4.80;;;3.90;;
795;SDS011;381;48.770;9.188;2023-09-30T00:30:51;8.23;;;4.00;;
795;SDS011;381;48.770;9.188;2023-09-30T00:35:53;6.87;;;4.20;;
795;SDS011;381;48.770;9.188;2023-09-30T00:40:55;4.60;;;4.00;;
795;SDS011;381;48.770;9.188;2023-09-30T00:46:01;3.90;;;3.53;;
795;SDS011;381;48.770;9.188;2023-09-30T00:51:05;3.73;;;3.40;;
795;SDS011;381;48.770;9.188;2023-09-30T00:56:07;5.80;;;3.33;;
795;SDS011;381;48.770;9.188;2023-09-30T01:01:12;4.00;;;3.43;;
795;SDS011;381;48.770;9.188;2023-09-30T01:06:15;3.77;;;3.47;;
795;SDS011;381;48.770;9.188;2023-09-30T01:11:17;3.93;;;3.17;;
795;SDS011;381;48.770;9.188;2023-09-30T01:16:20;4.67;;;3.20;;
795;SDS011;381;48.770;9.188;2023-09-30T01:21:22;4.17;;;3.63;;
795;SDS011;381;48.770;9.188;2023-09-30T01:26:29;4.40;;;3.97;;
795;SDS011;381;48.770;9.188;2023-09-30T01:31:33;3.57;;;3.37;;
795;SDS011;381;48.770;9.188;2023-09-30T01:36:36;4.00;;;3.70;;
795;SDS011;381;48.770;9.188;2023-09-30T01:41:40;3.67;;;3.37;;
795;SDS011;381;48.770;9.188;2023-09-30T01:46:42;3.93;;;3.40;;
795;SDS011;381;48.770;9.188;2023-09-30T01:51:45;3.40;;;3.10;;
795;SDS011;381;48.770;9.188;2023-09-30T01:56:48;3.37;;;3.17;;
795;SDS011;381;48.770;9.188;2023-09-30T02:01:51;3.87;;;3.50;;
795;SDS011;381;48.770;9.188;2023-09-30T02:06:53;4.30;;;3.90;;
795;SDS011;381;48.770;9.188;2023-09-30T02:11:56;4.50;;;3.60;;
795;SDS011;381;48.770;9.188;2023-09-30T02:16:59;5.07;;;3.83;;
795;SDS011;381;48.770;9.188;2023-09-30T02:22:01;5.40;;;4.07;;
795;SDS011;381;48.770;9.188;2023-09-30T02:27:05;4.07;;;3.77;;
795;SDS011;381;48.770;9.188;2023-09-30T02:32:07;4.00;;;3.67;;
795;SDS011;381;48.770;9.188;2023-09-30T02:37:09;4.23;;;3.93;;
795;SDS011;381;48.770;9.188;2023-09-30T02:42:13;4.67;;;4.10;;
795;SDS011;381;48.770;9.188;2023-09-30T02:47:15;6.53;;;4.20;;
795;SDS011;381;48.770;9.188;2023-09-30T02:52:17;5.80;;;4.80;;
795;SDS011;381;48.770;9.188;2023-09-30T02:57:21;5.53;;;4.50;;
795;SDS011;381;48.770;9.188;2023-09-30T03:02:23;8.40;;;4.60;;
795;SDS011;381;48.770;9.188;2023-09-30T03:07:25;4.97;;;4.57;;
795;SDS011;381;48.770;9.188;2023-09-30T03:12:28;4.30;;;3.90;;
795;SDS011;381;48.770;9.188;2023-09-30T03:17:31;5.97;;;4.63;;
795;SDS011;381;48.770;9.188;2023-09-30T03:22:34;4.60;;;4.20;;
795;SDS011;381;48.770;9.188;2023-09-30T03:27:37;6.30;;;4.60;;
795;SDS011;381;48.770;9.188;2023-09-30T03:32:39;4.90;;;4.50;;
795;SDS011;381;48.770;9.188;2023-09-30T03:37:42;4.80;;;4.17;;
795;SDS011;381;48.770;9.188;2023-09-30T03:42:47;8.53;;;4.40;;
795;SDS011;381;48.770;9.188;2023-09-30T03:47:50;4.87;;;4.37;;
795;SDS011;381;48.770;9.188;2023-09-30T03:53:00;6.60;;;3.80;;
795;SDS011;381;48.770;9.188;2023-09-30T03:58:04;4.00;;;3.70;;
795;SDS011;381;48.770;9.188;2023-09-30T04:03:06;3.90;;;3.20;;
795;SDS011;381;48.770;9.188;2023-09-30T04:08:08;4.20;;;3.60;;
795;SDS011;381;48.770;9.188;2023-09-30T04:13:13;4.20;;;3.30;;
795;SDS011;381;48.770;9.188;2023-09-30T04:18:15;4.47;;;3.47;;
795;SDS011;381;48.770;9.188;2023-09-30T04:23:17;4.20;;;3.80;;
795;SDS011;381;48.770;9.188;2023-09-30T04:28:21;4.53;;;4.13;;
795;SDS011;381;48.770;9.188;2023-09-30T04:33:24;4.50;;;4.10;;
795;SDS011;381;48.770;9.188;2023-09-30T04:38:27;4.83;;;4.20;;
795;SDS011;381;48.770;9.188;2023-09-30T04:43:31;5.90;;;3.77;;
795;SDS011;381;48.770;9.188;2023-09-30T04:48:33;4.13;;;3.70;;
795;SDS011;381;48.770;9.188;2023-09-30T04:53:36;4.77;;;3.60;;
795;SDS011;381;48.770;9.188;2023-09-30T04:58:40;7.60;;;4.07;;
795;SDS011;381;48.770;9.188;2023-09-30T05:03:42;5.17;;;3.60;;
795;SDS011;381;48.770;9.188;2023-09-30T05:08:44;4.23;;;3.83;;
795;SDS011;381;48.770;9.188;2023-09-30T05:13:48;3.60;;;3.30;;
795;SDS011;381;48.770;9.188;2023-09-30T05:18:50;3.83;;;3.53;;
795;SDS011;381;48.770;9.188;2023-09-30T05:23:52;4.23;;;3.80;;
795;SDS011;381;48.770;9.188;2023-09-30T05:28:55;3.93;;;3.17;;
795;SDS011;381;48.770;9.188;2023-09-30T05:33:57;3.50;;;3.20;;
795;SDS011;381;48.770;9.188;2023-09-30T05:38:59;5.00;;;3.80;;
795;SDS011;381;48.770;9.188;2023-09-30T05:44:05;7.93;;;3.80;;
795;SDS011;381;48.770;9.188;2023-09-30T05:49:07;4.23;;;3.83;;
795;SDS011;381;48.770;9.188;2023-09-30T05:54:13;5.10;;;4.30;;
795;SDS011;381;48.770;9.188;2023-09-30T05:59:17;6.80;;;4.50;;
795;SDS011;381;48.770;9.188;2023-09-30T06:04:19;6.70;;;3.80;;
795;SDS011;381;48.770;9.188;2023-09-30T06:09:21;4.40;;;4.00;;
795;SDS011;381;48.770;9.188;2023-09-30T06:14:26;4.17;;;3.37;;
795;SDS011;381;48.770;9.188;2023-09-30T06:19:31;7.60;;;3.63;;
795;SDS011;381;48.770;9.188;2023-09-30T06:24:33;5.70;;;3.50;;
795;SDS011;381;48.770;9.188;2023-09-30T06:29:36;4.00;;;3.60;;
795;SDS011;381;48.770;9.188;2023-09-30T06:34:38;5.30;;;3.80;;
795;SDS011;381;48.770;9.188;2023-09-30T06:39:40;6.73;;;4.20;;
795;SDS011;381;48.770;9.188;2023-09-30T06:44:44;4.23;;;3.83;;
795;SDS011;381;48.770;9.188;2023-09-30T06:49:47;4.50;;;4.10;;
795;SDS011;381;48.770;9.188;2023-09-30T06:54:49;7.27;;;5.00;;
795;SDS011;381;48.770;9.188;2023-09-30T06:59:53;6.90;;;4.13;;
795;SDS011;381;48.770;9.188;2023-09-30T07:04:56;6.10;;;3.90;;
795;SDS011;381;48.770;9.188;2023-09-30T07:09:58;7.10;;;4.17;;
795;SDS011;381;48.770;9.188;2023-09-30T07:15:02;6.70;;;3.70;;
795;SDS011;381;48.770;9.188;2023-09-30T07:20:05;6.70;;;4.47;;
795;SDS011;381;48.770;9.188;2023-09-30T07:25:10;7.40;;;4.80;;
795;SDS011;381;48.770;9.188;2023-09-30T07:30:13;10.23;;;6.20;;
795;SDS011;381;48.770;9.188;2023-09-30T07:35:16;6.60;;;4.93;;
795;SDS011;381;48.770;9.188;2023-09-30T07:40:18;4.50;;;4.10;;
795;SDS011;381;48.770;9.188;2023-09-30T07:45:24;4.60;;;4.17;;
795;SDS011;381;48.770;9.188;2023-09-30T07:50:28;6.63;;;4.30;;
795;SDS011;381;48.770;9.188;2023-09-30T07:55:30;5.30;;;3.80;;
795;SDS011;381;48.770;9.188;2023-09-30T08:00:33;5.13;;;4.63;;
795;SDS011;381;48.770;9.188;2023-09-30T08:05:35;8.77;;;5.00;;
795;SDS011;381;48.770;9.188;2023-09-30T08:10:38;8.47;;;4.40;;
795;SDS011;381;48.770;9.188;2023-09-30T08:15:41;6.50;;;4.90;;
795;SDS011;381;48.770;9.188;2023-09-30T08:20:43;6.07;;;4.50;;
795;SDS011;381;48.770;9.188;2023-09-30T08:25:45;5.83;;;4.30;;
795;SDS011;381;48.770;9.188;2023-09-30T08:30:49;6.97;;;4.47;;
795;SDS011;381;48.770;9.188;2023-09-30T08:35:53;6.57;;;4.43;;
795;SDS011;381;48.770;9.188;2023-09-30T08:40:55;6.20;;;5.00;;
795;SDS011;381;48.770;9.188;2023-09-30T08:45:59;7.23;;;4.90;;
795;SDS011;381;48.770;9.188;2023-09-30T08:51:01;6.93;;;4.73;;
795;SDS011;381;48.770;9.188;2023-09-30T08:56:04;7.07;;;4.70;;
795;SDS011;381;48.770;9.188;2023-09-30T09:01:11;6.57;;;5.00;;
795;SDS011;381;48.770;9.188;2023-09-30T09:06:13;6.00;;;4.37;;
795;SDS011;381;48.770;9.188;2023-09-30T09:11:15;5.77;;;5.20;;
795;SDS011;381;48.770;9.188;2023-09-30T09:16:19;6.33;;;5.47;;
795;SDS011;381;48.770;9.188;2023-09-30T09:21:22;8.17;;;5.00;;
795;SDS011;381;48.770;9.188;2023-09-30T09:26:27;5.63;;;4.90;;
795;SDS011;381;48.770;9.188;2023-09-30T09:31:32;5.97;;;4.30;;
795;SDS011;381;48.770;9.188;2023-09-30T09:36:39;4.87;;;4.30;;
795;SDS011;381;48.770;9.188;2023-09-30T09:41:48;7.17;;;5.03;;
795;SDS011;381;48.770;9.188;2023-09-30T09:46:53;6.20;;;4.47;;
795;SDS011;381;48.770;9.188;2023-09-30T09:51:56;5.63;;;4.77;;
795;SDS011;381;48.770;9.188;2023-09-30T09:56:59;7.10;;;5.40;;
795;SDS011;381;48.770;9.188;2023-09-30T10:02:09;5.97;;;4.50;;
795;SDS011;381;48.770;9.188;2023-09-30T10:07:13;6.13;;;4.00;;
795;SDS011;381;48.770;9.188;2023-09-30T10:12:21;5.33;;;4.23;;
795;SDS011;381;48.770;9.188;2023-09-30T10:23:19;6.73;;;4.60;;
795;SDS011;381;48.770;9.188;2023-09-30T10:28:35;6.37;;;4.60;;
795;SDS011;381;48.770;9.188;2023-09-30T10:44:56;7.10;;;4.60;;
795;SDS011;381;48.770;9.188;2023-09-30T10:49:58;8.03;;;4.53;;
795;SDS011;381;48.770;9.188;2023-09-30T10:55:03;7.73;;;4.80;;
795;SDS011;381;48.770;9.188;2023-09-30T11:00:08;6.07;;;4.40;;
795;SDS011;381;48.770;9.188;2023-09-30T11:05:12;7.53;;;5.00;;
795;SDS011;381;48.770;9.188;2023-09-30T11:10:17;9.93;;;5.20;;
795;SDS011;381;48.770;9.188;2023-09-30T11:15:20;5.63;;;4.50;;
795;SDS011;381;48.770;9.188;2023-09-30T11:20:22;6.03;;;4.53;;
795;SDS011;381;48.770;9.188;2023-09-30T11:25:26;4.80;;;4.20;;
795;SDS011;381;48.770;9.188;2023-09-30T11:30:28;7.53;;;4.63;;
795;SDS011;381;48.770;9.188;2023-09-30T11:35:30;7.17;;;5.07;;
795;SDS011;381;48.770;9.188;2023-09-30T11:40:33;6.20;;;4.83;;
795;SDS011;381;48.770;9.188;2023-09-30T11:45:35;6.30;;;4.80;;
795;SDS011;381;48.770;9.188;2023-09-30T11:50:47;8.83;;;4.77;;
795;SDS011;381;48.770;9.188;2023-09-30T11:55:51;6.70;;;4.40;;
795;SDS011;381;48.770;9.188;2023-09-30T12:00:55;6.97;;;4.33;;
795;SDS011;381;48.770;9.188;2023-09-30T12:06:00;9.07;;;4.77;;
795;SDS011;381;48.770;9.188;2023-09-30T12:11:03;8.30;;;4.97;;
795;SDS011;381;48.770;9.188;2023-09-30T12:16:06;6.67;;;4.60;;
795;SDS011;381;48.770;9.188;2023-09-30T12:21:09;6.47;;;4.57;;
795;SDS011;381;48.770;9.188;2023-09-30T12:26:12;6.97;;;4.67;;
795;SDS011;381;48.770;9.188;2023-09-30T12:31:15;7.37;;;4.60;;
795;SDS011;381;48.770;9.188;2023-09-30T12:36:17;7.17;;;4.60;;
795;SDS011;381;48.770;9.188;2023-09-30T12:41:21;8.80;;;5.00;;
795;SDS011;381;48.770;9.188;2023-09-30T12:46:23;7.27;;;4.80;;
795;SDS011;381;48.770;9.188;2023-09-30T12:51:26;6.57;;;4.87;;
795;SDS011;381;48.770;9.188;2023-09-30T12:56:29;7.67;;;4.80;;
795;SDS011;381;48.770;9.188;2023-09-30T13:01:32;5.77;;;5.00;;
795;SDS011;381;48.770;9.188;2023-09-30T13:06:34;6.07;;;5.07;;
795;SDS011;381;48.770;9.188;2023-09-30T13:11:38;6.53;;;5.10;;
795;SDS011;381;48.770;9.188;2023-09-30T13:16:41;5.03;;;3.17;;
795;SDS011;381;48.770;9.188;2023-09-30T13:21:45;7.43;;;4.73;;
795;SDS011;381;48.770;9.188;2023-09-30T13:26:48;5.67;;;4.37;;
795;SDS011;381;48.770;9.188;2023-09-30T13:31:52;5.03;;;3.50;;
795;SDS011;381;48.770;9.188;2023-09-30T13:36:54;8.00;;;5.30;;
795;SDS011;381;48.770;9.188;2023-09-30T13:41:59;6.60;;;4.77;;
795;SDS011;381;48.770;9.188;2023-09-30T13:47:01;9.23;;;5.63;;
795;SDS011;381;48.770;9.188;2023-09-30T13:52:03;6.73;;;4.90;;
795;SDS011;381;48.770;9.188;2023-09-30T13:57:07;10.87;;;5.37;;
795;SDS011;381;48.770;9.188;2023-09-30T14:02:10;7.97;;;4.60;;
795;SDS011;381;48.770;9.188;2023-09-30T14:07:12;7.00;;;4.73;;
795;SDS011;381;48.770;9.188;2023-09-30T14:12:16;8.70;;;4.90;;
795;SDS011;381;48.770;9.188;2023-09-30T14:17:18;6.57;;;4.33;;
795;SDS011;381;48.770;9.188;2023-09-30T14:22:20;7.80;;;4.80;;
795;SDS011;381;48.770;9.188;2023-09-30T14:27:23;7.57;;;5.27;;
795;SDS011;381;48.770;9.188;2023-09-30T14:32:26;7.03;;;5.57;;
795;SDS011;381;48.770;9.188;2023-09-30T14:37:28;5.53;;;4.17;;
795;SDS011;381;48.770;9.188;2023-09-30T14:42:31;8.37;;;5.33;;
795;SDS011;381;48.770;9.188;2023-09-30T14:47:33;6.30;;;4.77;;
795;SDS011;381;48.770;9.188;2023-09-30T14:52:36;6.77;;;4.63;;
795;SDS011;381;48.770;9.188;2023-09-30T14:57:39;6.70;;;4.50;;
795;SDS011;381;48.770;9.188;2023-09-30T15:02:41;13.30;;;4.80;;
795;SDS011;381;48.770;9.188;2023-09-30T15:07:43;7.30;;;4.80;;
795;SDS011;381;48.770;9.188;2023-09-30T15:12:47;7.60;;;4.80;;
795;SDS011;381;48.770;9.188;2023-09-30T15:17:50;6.13;;;4.53;;
795;SDS011;381;48.770;9.188;2023-09-30T15:22:53;6.67;;;4.10;;
795;SDS011;381;48.770;9.188;2023-09-30T15:27:56;8.17;;;4.13;;
795;SDS011;381;48.770;9.188;2023-09-30T15:32:58;8.03;;;3.97;;
795;SDS011;381;48.770;9.188;2023-09-30T15:38:00;7.60;;;4.30;;
795;SDS011;381;48.770;9.188;2023-09-30T15:43:05;6.53;;;4.30;;
795;SDS011;381;48.770;9.188;2023-09-30T15:48:07;4.77;;;3.90;;
795;SDS011;381;48.770;9.188;2023-09-30T15:53:09;7.70;;;4.87;;
795;SDS011;381;48.770;9.188;2023-09-30T15:58:12;7.63;;;4.50;;
795;SDS011;381;48.770;9.188;2023-09-30T16:03:15;8.03;;;4.87;;
795;SDS011;381;48.770;9.188;2023-09-30T16:08:17;8.40;;;5.67;;
795;SDS011;381;48.770;9.188;2023-09-30T16:13:20;8.00;;;4.90;;
795;SDS011;381;48.770;9.188;2023-09-30T16:18:22;6.10;;;4.37;;
795;SDS011;381;48.770;9.188;2023-09-30T16:23:25;7.10;;;5.27;;
795;SDS011;381;48.770;9.188;2023-09-30T16:28:29;9.43;;;5.20;;
795;SDS011;381;48.770;9.188;2023-09-30T16:33:31;10.47;;;5.07;;
795;SDS011;381;48.770;9.188;2023-09-30T16:38:33;5.87;;;4.40;;
795;SDS011;381;48.770;9.188;2023-09-30T16:43:36;7.37;;;5.67;;
795;SDS011;381;48.770;9.188;2023-09-30T16:48:39;6.43;;;4.10;;
795;SDS011;381;48.770;9.188;2023-09-30T16:53:41;7.57;;;5.00;;
795;SDS011;381;48.770;9.188;2023-09-30T16:58:45;6.90;;;5.20;;
795;SDS011;381;48.770;9.188;2023-09-30T17:03:47;10.23;;;6.90;;
795;SDS011;381;48.770;9.188;2023-09-30T17:08:50;10.03;;;5.20;;
795;SDS011;381;48.770;9.188;2023-09-30T17:13:54;6.27;;;5.00;;
795;SDS011;381;48.770;9.188;2023-09-30T17:18:56;7.33;;;4.67;;
795;SDS011;381;48.770;9.188;2023-09-30T17:24:00;8.07;;;5.23;;
795;SDS011;381;48.770;9.188;2023-09-30T17:29:04;7.60;;;4.73;;
795;SDS011;381;48.770;9.188;2023-09-30T17:34:06;8.10;;;5.63;;
795;SDS011;381;48.770;9.188;2023-09-30T17:39:08;7.37;;;5.00;;
795;SDS011;381;48.770;9.188;2023-09-30T17:44:17;8.00;;;5.13;;
795;SDS011;381;48.770;9.188;2023-09-30T17:49:19;7.17;;;5.13;;
795;SDS011;381;48.770;9.188;2023-09-30T17:54:21;9.33;;;5.50;;
795;SDS011;381;48.770;9.188;2023-09-30T17:59:25;12.80;;;6.17;;
795;SDS011;381;48.770;9.188;2023-09-30T18:04:27;7.60;;;4.70;;
795;SDS011;381;48.770;9.188;2023-09-30T18:09:29;8.27;;;5.27;;
795;SDS011;381;48.770;9.188;2023-09-30T18:14:33;9.63;;;5.80;;
795;SDS011;381;48.770;9.188;2023-09-30T18:19:35;9.80;;;5.90;;
795;SDS011;381;48.770;9.188;2023-09-30T18:24:37;9.70;;;5.40;;
795;SDS011;381;48.770;9.188;2023-09-30T18:29:40;9.73;;;6.47;;
795;SDS011;381;48.770;9.188;2023-09-30T18:34:43;9.33;;;6.10;;
795;SDS011;381;48.770;9.188;2023-09-30T18:39:45;12.47;;;6.70;;
795;SDS011;381;48.770;9.188;2023-09-30T18:44:49;8.60;;;5.83;;
795;SDS011;381;48.770;9.188;2023-09-30T18:49:51;9.50;;;5.83;;
795;SDS011;381;48.770;9.188;2023-09-30T18:54:53;7.63;;;5.50;;
795;SDS011;381;48.770;9.188;2023-09-30T18:59:57;9.20;;;5.90;;
795;SDS011;381;48.770;9.188;2023-09-30T19:05:00;10.73;;;5.80;;
795;SDS011;381;48.770;9.188;2023-09-30T19:10:02;14.03;;;6.40;;
795;SDS011;381;48.770;9.188;2023-09-30T19:15:06;8.80;;;6.50;;
795;SDS011;381;48.770;9.188;2023-09-30T19:20:10;8.00;;;5.30;;
795;SDS011;381;48.770;9.188;2023-09-30T19:25:14;12.83;;;5.83;;
795;SDS011;381;48.770;9.188;2023-09-30T19:30:18;6.93;;;5.73;;
795;SDS011;381;48.770;9.188;2023-09-30T19:35:21;10.70;;;6.13;;
795;SDS011;381;48.770;9.188;2023-09-30T19:40:23;9.70;;;6.20;;
795;SDS011;381;48.770;9.188;2023-09-30T19:45:27;10.40;;;6.50;;
795;SDS011;381;48.770;9.188;2023-09-30T19:50:29;9.57;;;6.10;;
795;SDS011;381;48.770;9.188;2023-09-30T19:55:31;8.77;;;6.10;;
795;SDS011;381;48.770;9.188;2023-09-30T20:00:36;8.40;;;5.90;;
795;SDS011;381;48.770;9.188;2023-09-30T20:05:39;11.90;;;6.87;;
795;SDS011;381;48.770;9.188;2023-09-30T20:10:41;7.80;;;6.20;;
795;SDS011;381;48.770;9.188;2023-09-30T20:15:45;12.97;;;6.93;;
795;SDS011;381;48.770;9.188;2023-09-30T20:20:47;10.00;;;6.60;;
795;SDS011;381;48.770;9.188;2023-09-30T20:25:49;11.43;;;7.03;;
795;SDS011;381;48.770;9.188;2023-09-30T20:30:53;10.47;;;7.47;;
795;SDS011;381;48.770;9.188;2023-09-30T20:35:55;9.67;;;6.33;;
795;SDS011;381;48.770;9.188;2023-09-30T20:40:57;10.43;;;7.27;;
795;SDS011;381;48.770;9.188;2023-09-30T20:46:01;10.40;;;6.93;;
795;SDS011;381;48.770;9.188;2023-09-30T20:51:04;9.33;;;6.23;;
795;SDS011;381;48.770;9.188;2023-09-30T20:56:12;11.27;;;7.43;;
795;SDS011;381;48.770;9.188;2023-09-30T21:01:16;8.60;;;6.70;;
795;SDS011;381;48.770;9.188;2023-09-30T21:06:18;12.43;;;7.33;;
795;SDS011;381;48.770;9.188;2023-09-30T21:11:20;9.53;;;7.13;;
795;SDS011;381;48.770;9.188;2023-09-30T21:16:23;8.47;;;5.50;;
795;SDS011;381;48.770;9.188;2023-09-30T21:21:26;8.57;;;6.57;;
795;SDS011;381;48.770;9.188;2023-09-30T21:26:28;10.73;;;6.60;;
795;SDS011;381;48.770;9.188;2023-09-30T21:31:32;7.80;;;6.00;;
795;SDS011;381;48.770;9.188;2023-09-30T21:36:34;7.70;;;6.07;;
795;SDS011;381;48.770;9.188;2023-09-30T21:41:36;10.03;;;6.40;;
795;SDS011;381;48.770;9.188;2023-09-30T21:46:39;8.73;;;6.30;;
795;SDS011;381;48.770;9.188;2023-09-30T21:51:42;7.50;;;5.90;;
795;SDS011;381;48.770;9.188;2023-09-30T21:56:44;9.47;;;5.60;;
795;SDS011;381;48.770;9.188;2023-09-30T22:01:48;10.93;;;7.10;;
795;SDS011;381;48.770;9.188;2023-09-30T22:06:50;8.00;;;5.73;;
795;SDS011;381;48.770;9.188;2023-09-30T22:11:53;9.70;;;5.60;;
795;SDS011;381;48.770;9.188;2023-09-30T22:16:56;8.63;;;6.10;;
795;SDS011;381;48.770;9.188;2023-09-30T22:21:58;9.90;;;7.60;;
795;SDS011;381;48.770;9.188;2023-09-30T22:27:00;10.80;;;7.13;;
795;SDS011;381;48.770;9.188;2023-09-30T22:32:04;10.73;;;6.63;;
795;SDS011;381;48.770;9.188;2023-09-30T22:37:07;12.40;;;6.93;;
795;SDS011;381;48.770;9.188;2023-09-30T22:42:11;8.73;;;6.63;;
795;SDS011;381;48.770;9.188;2023-09-30T22:47:15;9.87;;;6.03;;
795;SDS011;381;48.770;9.188;2023-09-30T22:52:17;9.60;;;7.17;;
795;SDS011;381;48.770;9.188;2023-09-30T22:57:20;10.57;;;6.50;;
795;SDS011;381;48.770;9.188;2023-09-30T23:02:23;6.40;;;5.40;;
795;SDS011;381;48.770;9.188;2023-09-30T23:07:25;10.67;;;6.47;;
795;SDS011;381;48.770;9.188;2023-09-30T23:12:27;8.37;;;5.60;;
795;SDS011;381;48.770;9.188;2023-09-30T23:17:31;8.53;;;6.67;;
795;SDS011;381;48.770;9.188;2023-09-30T23:22:39;7.87;;;6.30;;
795;SDS011;381;48.770;9.188;2023-09-30T23:27:45;11.23;;;6.70;;
795;SDS011;381;48.770;9.188;2023-09-30T23:32:51;13.80;;;7.13;;
795;SDS011;381;48.770;9.188;2023-09-30T23:37:57;9.33;;;6.80;;
795;SDS011;381;48.770;9.188;2023-09-30T23:43:01;10.07;;;7.07;;
795;SDS011;381;48.770;9.188;2023-09-30T23:48:05;10.30;;;6.03;;
795;SDS011;381;48.770;9.188;2023-09-30T23:53:08;8.77;;;6.97;;
795;SDS011;381;48.770;9.188;2023-09-30T23:58:10;9.23;;;6.87;;
